India Meteorological Department
Airport METARs
Date : 21-02-2019
Sl. # Airport METAR
1 Agartala VEAT 211230Z 00000KT 4000 HZ NSC 24/18 Q1014 NOSIG=
2 Ahmedabad VAAH 211230Z 34004KT 5000 FU NSC 30/16 Q1014 BECMG 4000=
3 Allahabad VEAB 211230Z 10004KT 6000 FEW030 SCT250 26/21 Q1014 NOSIG=
4 Amritsar VIAR 211230Z 30003KT 3000 BR SCT035 SCT080 19/15 Q1016 NOSIG=
5 Aurangabad VAAU 211200Z 25004KT 4000 HZ NSC 34/14 Q1016 NOSIG=
6 Bangalore VOBL 211230Z 11013KT CAVOK 28/09 Q1019 NOSIG=
7 Baroda VABO 211230Z 28005KT 6000 NSC 32/12 Q1014 NOSIG=
8 Bhaunagar VABV 211230Z 13008KT 6000 NSC 29/11 Q1014=
9 Bhopal VABP 211200Z 20008KT 6000 FEW030 33/15 Q1015 NOSIG=
10 Bhubaneswar VEBS 211230Z 19005KT 5000 HZ FEW020 30/25 Q1013 NOSIG=
11 Chennai VOMM 211230Z 04007KT 7000 FEW020 29/21 Q1015 NOSIG=
12 Coimbatore VOCB 211230Z 07010KT 6000 FEW015 32/13 Q1015 NOSIG=
13 Colombo VCBI 211240Z 04011KT 9000 FEW018 31/21 Q1011 NOSIG=
14 Delhi VIDP 211230Z 08007KT 4000 HZ SCT040 BKN100 25/15 Q1015 NOSIG=
15 Dehradun VIDN 211230Z 04003KT 3000 HZ SCT030 BKN070 21/15 Q1017=
16 Gauhati VEGT 211230Z 09003KT 3500 HZ FEW020 SCT100 23/15 Q1015 NOSIG=
17 Gaya VEGY 211230Z NIL=
18 Goa VOGO 211230Z 33009KT 5000 BR NSC 27/24 Q1013 NOSIG=
19 Fursatganj VERB 211200Z VRB02KT 4000 HZ FEW030 SCT100 25/18 Q1013 =
20 Hyderabad VOHS 211230Z 12005KT 6000 FEW015 31/14 Q1018 NOSIG=
21 Indore VAID 211200Z 25010KT 5000 HZ NSC 32/11 Q1016 NOSIG=
22 Jabalpur VAJB 211230Z 18006KT 4000 HZ FEW030 30/15 Q1016=
23 Jaipur VIJP 211230Z 30007KT 5000 HZ FEW035 SCT100 29/08 Q1014 BECMG 3000 HZ=
24 Khajuraho VEKO 211200Z 27002KT 6000 FEW030 SCT250 34/21 Q1012=
25 Kochi VOCI 211230Z 27009KT 5000 HZ FEW020 32/20 Q1011 NOSIG=
26 Kolkata VECC 211230Z 00000KT 3500 HZ NSC 29/14 Q1013 NOSIG=
27 Kozhikode VOCL 211230Z 31007KT 7000 NSC 31/22 Q1011 NOSIG=
28 Lucknow VILK 211230Z 12003KT 2500 HZ SCT100 SCT200 25/16 Q1014 NOSIG=
29 Ludhiana VILD 211100Z 19002KT 5000 HZ BKN025 24/16 Q1015 =
30 Madurai VOMD 211230Z 08011KT 6000 FEW020 33/14 Q1013 NOSIG=
31 Mumbai VABB 211230Z 28010KT 5000 HZ NSC 27/19 Q1014 NOSIG=
32 Nagpur VANP 211230Z 17002KT 4000 HZ NSC 33/15 Q1014 BECMG 3000 HZ=
33 Ozar VAOZ 211100Z 30006KT 9999 FEW030 35/09 Q1015 NOSIG=
34 Patna VEPT 211230Z 27002KT 4000 HZ FEW250 26/13 Q1014 NOSIG=
35 Raipur VERP 211230Z 27003KT 6000 NSC 31/19 Q1015 NOSIG=
36 Safdarjung VIDD 211230Z 09006KT 4000 HZ SCT035 BKN100 25/18 Q1015 NOSIG=
37 Ranchi VERC 211230Z 02002KT 5000 HZ NSC 27/10 Q1017 NOSIG=
38 Trichy VOTR 211230Z 09010G20KT 9999 FEW016 33/19 Q1013 NOSIG=
39 Trivandrum VOTV 211230Z 34006KT 6000 FEW015 31/23 Q1010 TEMPO 5000 HZ=
40 Udaipur VAUD 211200Z 23006KT 6000 FEW100 31/05 Q1015 NOSIG=
41 Varanasi VEBN 211230Z 05005KT 3500 HZ FEW100 26/17 Q1014 BECMG 3000 HZ=
42 Vizag VOVZ 211230Z 20005KT 4500 HZ FU FEW018 28/23 Q1014 NOSIG =
43 Male VRMM 211200Z 06015KT 9999 FEW018TCU BKN290 30/24 Q1011 NOSIG=
44 Gan VRMG 211200Z 00000KT 9000 SCT017 FEW018CB BKN110 28/26 Q1011 CB N,E TEMPO 5000 -SHRA=
45 Kathmandu VNKT 211230Z NIL=
46 Dhaka VGHS 211230Z 33003KT 3500 HZ NSC 27/16 Q1014 NOSIG=
47 Colombo VCBI 211240Z 04011KT 9000 FEW018 31/21 Q1011 NOSIG=
48 Karachi OPKC 211225Z 22010KT 6000 SCT020 24/14 Q1017 NOSIG=
49 Lahore OPLA 211225Z 30003KT 4000 FU SCT040 19/14 Q1016 RMK QFE990 RMK A30.00=
50 Leh VILH 211230Z 19004KT 0800 SN SKY OBS -2/-2 Q1018 NOSIG=
51 Sri Nagar VISR 211230Z 31003KT 6000 SCT005 SCT010 BKN080 04/03 Q1018 TEMPO -RA=
52 Jammu VIJU 211230Z VRB02KT 6000 SCT020 BKN100 18/15 Q1015 NOSIG=
53 Jodhpur VIJO 211230Z 35007KT 6000 FEW025 SCT030 BKN100 24/14 Q1016 TEMPO -RA=
54 Jaisalmer VIJR 211230Z 36008KT 6000 FEW025 SCT250 21/10 Q1017 NOSIG=
55 Bhuj-Rudra VABJ 211230Z 34006KT 6000 SCT040 29/16 Q1016 NOSIG=
56 Gorakhpur VEGK 211230Z VRB02KT 6000 FEW030 SCT200 21/18 Q1014 NOSIG=
57 Agra VIAG 211230Z 07005KT 6000 SCT100 BKN250 26/19 Q1013 NOSIG=
58 Bagdogra VEBD 211230Z VRB02KT 4000 HZ FEW025 BKN080 BKN250 22/15 Q1015 TEMPO -RA=
59 Gwalior VIGR 211230Z 05005KT 6000 FEW040 SCT100 27/19 Q1014 NOSIG=
60 Pune VAPO 211230Z 24004KT 6000 SCT040 SCT090 34/10 Q1017 NOSIG=
61 Chandigarh VICG 211230Z 16006KT 6000 FEW020 SCT030 BKN090 23/13 Q1015 TEMPO -RA=
62 Jamnagar VAJM 211230Z 28007KT 6000 SKC 26/19 Q1015 NOSIG=

 

--- End of List ---